createdAt,value
2022-08-05T00:01:49.658Z,99999.48
2022-08-05T00:04:15.022Z,100000.43
2022-08-05T00:06:43.825Z,100000.33
2022-08-05T00:09:13.155Z,99996.60
2022-08-05T00:11:49.457Z,99999.38
2022-08-05T00:14:17.152Z,99988.48
2022-08-05T00:16:52.466Z,99986.54
2022-08-05T00:19:14.445Z,99989.23
2022-08-05T00:21:43.653Z,99989.27
2022-08-05T00:24:18.899Z,99987.34
2022-08-05T00:26:50.797Z,99986.92
2022-08-05T00:29:13.487Z,99987.14
2022-08-05T00:31:53.274Z,99985.89
2022-08-05T00:34:56.663Z,99979.34
2022-08-05T00:37:10.726Z,99981.47
2022-08-05T00:39:14.400Z,99983.88
2022-08-05T00:41:51.675Z,99978.20
2022-08-05T00:44:15.427Z,99967.64
2022-08-05T00:46:44.154Z,99972.42
2022-08-05T00:49:13.988Z,99974.19
2022-08-05T00:51:51.920Z,99971.94
2022-08-05T00:54:15.234Z,99966.17
2022-08-05T00:56:51.557Z,99969.54
2022-08-05T00:59:16.023Z,99972.52
2022-08-05T01:01:48.069Z,99969.85
2022-08-05T01:04:15.716Z,99967.41
2022-08-05T01:06:48.518Z,99967.16
2022-08-05T01:09:15.222Z,99963.57
2022-08-05T01:11:48.321Z,99965.36
2022-08-05T01:14:28.313Z,99962.80
2022-08-05T01:16:57.160Z,99963.81
2022-08-05T01:19:56.928Z,99958.56
2022-08-05T01:22:15.553Z,99954.58
2022-08-05T01:24:57.827Z,99955.41
2022-08-05T01:27:28.302Z,99948.91
2022-08-05T01:30:00.131Z,99948.52
2022-08-05T01:32:33.078Z,99943.19
2022-08-05T01:35:03.544Z,99943.83
2022-08-05T01:37:36.705Z,99939.93
2022-08-05T01:40:08.229Z,99939.87
2022-08-05T01:42:38.877Z,99941.52
2022-08-05T01:45:09.799Z,99937.48
2022-08-05T01:47:43.409Z,99941.14
2022-08-05T01:50:15.130Z,99936.53
2022-08-05T01:52:43.924Z,99936.67
2022-08-05T01:55:14.227Z,99934.20
2022-08-05T01:58:10.297Z,99932.11
2022-08-05T02:00:15.188Z,99934.98
2022-08-05T02:02:54.303Z,99934.95
2022-08-05T02:05:19.653Z,99935.23
2022-08-05T02:08:00.278Z,99926.72
2022-08-05T02:10:28.155Z,99926.50
2022-08-05T02:12:54.581Z,99923.67
2022-08-05T02:15:25.108Z,99923.64
2022-08-05T02:18:31.909Z,99920.06
2022-08-05T02:20:29.675Z,99916.76
2022-08-05T02:23:01.963Z,99923.95
2022-08-05T02:25:35.925Z,99921.36
2022-08-05T02:28:08.985Z,99919.55
2022-08-05T02:30:54.277Z,99919.82
2022-08-05T02:33:24.577Z,99911.80
2022-08-05T02:35:58.980Z,99908.84
2022-08-05T02:38:20.524Z,99913.75
2022-08-05T02:40:52.217Z,99910.41
2022-08-05T02:43:21.223Z,99904.11
2022-08-05T02:45:53.878Z,99906.28
2022-08-05T02:48:29.096Z,99907.20
2022-08-05T02:50:54.084Z,99907.86
2022-08-05T02:53:24.049Z,99909.03
2022-08-05T02:56:00.083Z,99904.52
2022-08-05T02:58:26.751Z,99908.89
2022-08-05T03:00:56.962Z,99901.16
2022-08-05T03:03:27.154Z,99907.88
2022-08-05T03:06:55.961Z,99900.80
2022-08-05T03:08:30.015Z,99901.89
2022-08-05T03:11:01.323Z,99906.14
2022-08-05T03:13:51.141Z,99897.34
2022-08-05T03:15:59.680Z,99901.30
2022-08-05T03:18:30.087Z,99899.07
2022-08-05T03:20:58.783Z,99894.92
2022-08-05T03:23:28.993Z,99891.20
2022-08-05T03:26:30.510Z,99887.91
2022-08-05T03:28:31.116Z,99894.29
2022-08-05T03:31:01.375Z,99892.48
2022-08-05T03:33:42.267Z,99892.80
2022-08-05T03:36:01.018Z,99891.60
2022-08-05T03:38:32.664Z,99891.80
2022-08-05T03:41:00.261Z,99890.19
2022-08-05T03:44:09.701Z,99893.53
2022-08-05T03:46:02.208Z,99893.06
2022-08-05T03:48:35.437Z,99892.41
2022-08-05T03:52:37.935Z,99889.05
2022-08-05T03:55:34.099Z,99884.20
2022-08-05T03:56:35.114Z,99891.80
2022-08-05T03:59:02.886Z,99893.11
2022-08-05T04:01:32.525Z,99895.04
2022-08-05T04:04:09.427Z,99894.16
2022-08-05T04:06:33.888Z,99888.06
2022-08-05T04:09:03.937Z,99888.67
2022-08-05T04:11:50.732Z,99883.81
2022-08-05T04:14:04.132Z,99883.25
2022-08-05T04:16:33.054Z,99888.02
2022-08-05T04:19:02.608Z,99883.55
2022-08-05T04:22:08.748Z,99882.19
2022-08-05T04:24:06.996Z,99879.05
2022-08-05T04:26:35.295Z,99881.16
2022-08-05T04:29:07.380Z,99876.30
2022-08-05T04:31:38.464Z,99876.13
2022-08-05T04:34:31.917Z,99877.47
2022-08-05T04:36:44.985Z,99878.25
2022-08-05T04:39:08.604Z,99878.14
2022-08-05T04:41:38.684Z,99876.95
2022-08-05T04:44:09.586Z,99880.47
2022-08-05T04:46:38.772Z,99881.41
2022-08-05T04:49:12.294Z,99872.19
2022-08-05T04:51:38.412Z,99878.17
2022-08-05T04:54:07.221Z,99880.88
2022-08-05T04:56:37.623Z,99872.39
2022-08-05T04:59:22.274Z,99884.11
2022-08-05T05:02:08.231Z,99877.82
2022-08-05T05:04:09.425Z,99883.28
2022-08-05T05:06:49.371Z,99876.41
2022-08-05T05:09:13.309Z,99878.13
2022-08-05T05:11:53.133Z,99879.48
2022-08-05T05:14:16.239Z,99877.33
2022-08-05T05:16:42.433Z,99877.47
2022-08-05T05:19:23.440Z,99880.42
2022-08-05T05:21:43.134Z,99875.61
2022-08-05T05:24:14.286Z,99876.72
2022-08-05T05:26:46.510Z,99873.09
2022-08-05T05:29:15.122Z,99871.44
2022-08-05T05:31:46.247Z,99869.70
2022-08-05T05:34:14.403Z,99875.20
2022-08-05T05:36:47.028Z,99865.73
2022-08-05T05:39:16.019Z,99873.01
2022-08-05T05:41:46.320Z,99871.37
2022-08-05T05:44:37.785Z,99871.55
2022-08-05T05:46:47.809Z,99873.65
2022-08-05T05:49:22.589Z,99873.00
2022-08-05T05:51:49.722Z,99873.03
2022-08-05T05:54:18.288Z,99876.11
2022-08-05T05:56:48.497Z,99876.88
2022-08-05T05:59:18.745Z,99874.59
2022-08-05T06:01:57.339Z,99869.36
2022-08-05T06:04:19.397Z,99868.14
2022-08-05T06:06:49.701Z,99869.97
2022-08-05T06:09:24.890Z,99864.59
2022-08-05T06:12:01.838Z,99864.54
2022-08-05T06:14:19.236Z,99865.63
2022-08-05T06:16:47.960Z,99866.91
2022-08-05T06:19:34.255Z,99863.23
2022-08-05T06:21:49.936Z,99863.78
2022-08-05T06:24:18.972Z,99863.38
2022-08-05T06:26:51.964Z,99870.16
2022-08-05T06:29:42.878Z,99869.38
2022-08-05T06:31:51.350Z,99864.81
2022-08-05T06:34:20.397Z,99861.94
2022-08-05T06:36:57.366Z,99859.09
2022-08-05T06:39:21.799Z,99865.02
2022-08-05T06:41:54.181Z,99859.96
2022-08-05T06:44:22.998Z,99862.30
2022-08-05T06:46:51.958Z,99866.78
2022-08-05T06:50:01.995Z,99868.33
2022-08-05T06:51:54.047Z,99859.04
2022-08-05T06:54:25.909Z,99863.77
2022-08-05T06:56:55.055Z,99864.00
2022-08-05T06:59:23.981Z,99867.28
2022-08-05T07:01:53.185Z,99855.05
2022-08-05T07:04:23.716Z,99858.83
2022-08-05T07:06:53.424Z,99856.37
2022-08-05T07:09:24.915Z,99864.72
2022-08-05T07:11:52.782Z,99859.28
2022-08-05T07:14:39.425Z,99856.05
2022-08-05T07:17:59.254Z,99855.98
2022-08-05T07:22:09.882Z,99842.59
2022-08-05T07:24:43.885Z,99840.47
2022-08-05T07:27:10.682Z,99842.39
2022-08-05T07:30:22.262Z,99846.31
2022-08-05T07:32:12.417Z,99845.92
2022-08-05T07:34:42.779Z,99846.70
2022-08-05T07:37:11.872Z,99840.87
2022-08-05T07:40:04.419Z,99845.84
2022-08-05T07:42:15.125Z,99843.14
2022-08-05T07:44:41.453Z,99844.73
2022-08-05T07:47:16.844Z,99850.30
2022-08-05T07:49:43.555Z,99839.72
2022-08-05T07:52:12.601Z,99838.34
2022-08-05T07:54:47.665Z,99832.47
2022-08-05T07:57:22.694Z,99839.35
2022-08-05T07:59:42.308Z,99842.77
2022-08-05T08:02:15.848Z,99841.63
2022-08-05T08:04:42.528Z,99844.50
2022-08-05T08:07:13.245Z,99839.89
2022-08-05T08:09:41.982Z,99840.23
2022-08-05T08:12:27.558Z,99840.28
2022-08-05T08:14:41.575Z,99829.49
2022-08-05T08:17:16.050Z,99831.64
2022-08-05T08:20:21.750Z,99823.37
2022-08-05T08:22:15.916Z,99824.11
2022-08-05T08:24:51.351Z,99821.86
2022-08-05T08:27:16.650Z,99829.90
2022-08-05T08:30:05.803Z,99821.67
2022-08-05T08:32:15.540Z,99826.73
2022-08-05T08:34:45.905Z,99818.84
2022-08-05T08:37:18.884Z,99825.56
2022-08-05T08:39:49.725Z,99816.67
2022-08-05T08:42:33.980Z,99820.94
2022-08-05T08:45:20.945Z,99820.67
2022-08-05T08:47:47.454Z,99823.37
2022-08-05T08:50:18.081Z,99825.59
2022-08-05T08:52:23.149Z,99821.64
2022-08-05T08:54:53.771Z,99823.45
2022-08-05T08:57:22.656Z,99821.73
2022-08-05T08:59:51.872Z,99822.09
2022-08-05T09:02:21.684Z,99811.17
2022-08-05T09:05:16.331Z,99819.83
2022-08-05T09:07:28.629Z,99811.70
2022-08-05T09:09:53.506Z,99809.82
2022-08-05T09:12:27.337Z,99809.79
2022-08-05T09:15:03.974Z,99812.75
2022-08-05T09:17:42.699Z,99810.58
2022-08-05T09:20:01.723Z,99803.52
2022-08-05T09:22:32.100Z,99807.88
2022-08-05T09:25:02.238Z,99807.34
2022-08-05T09:28:04.775Z,99808.40
2022-08-05T09:30:06.803Z,99813.66
2022-08-05T09:32:50.002Z,99808.17
2022-08-05T09:35:26.455Z,99798.36
2022-08-05T09:38:17.572Z,99806.44
2022-08-05T09:40:41.091Z,99805.97
2022-08-05T09:43:12.937Z,99803.36
2022-08-05T09:46:06.122Z,99803.45
2022-08-05T09:48:26.943Z,99803.87
2022-08-05T09:50:57.527Z,99806.00
2022-08-05T09:53:53.437Z,99802.12
2022-08-05T09:56:04.977Z,99799.02
2022-08-05T09:58:29.804Z,99802.91
2022-08-05T10:01:01.150Z,99804.81
2022-08-05T10:03:56.943Z,99800.55
2022-08-05T10:06:14.697Z,99800.52
2022-08-05T10:08:38.255Z,99808.08
2022-08-05T10:11:17.722Z,99799.64
2022-08-05T10:13:48.360Z,99795.30
2022-08-05T10:16:34.334Z,99799.30
2022-08-05T10:19:09.134Z,99806.80
2022-08-05T10:21:40.693Z,99796.91
2022-08-05T10:24:10.757Z,99789.22
2022-08-05T10:26:51.277Z,99790.88
2022-08-05T10:29:09.748Z,99781.39
2022-08-05T10:32:53.760Z,99790.17
2022-08-05T10:34:12.597Z,99793.09
2022-08-05T10:36:42.789Z,99788.89
2022-08-05T10:39:24.889Z,99779.17
2022-08-05T10:41:51.381Z,99775.61
2022-08-05T10:44:21.580Z,99780.89
2022-08-05T10:46:54.194Z,99772.16
2022-08-05T10:49:33.359Z,99773.27
2022-08-05T10:52:02.505Z,99775.95
2022-08-05T10:54:56.832Z,99775.09
2022-08-05T10:57:32.244Z,99777.73
2022-08-05T11:00:20.731Z,99779.66
2022-08-05T11:03:24.750Z,99779.34
2022-08-05T11:05:37.730Z,99770.84
2022-08-05T11:08:36.561Z,99761.91
2022-08-05T11:10:50.442Z,99761.41
2022-08-05T11:13:14.245Z,99764.84
2022-08-05T11:15:59.956Z,99763.13
2022-08-05T11:18:29.987Z,99762.61
2022-08-05T11:21:02.166Z,99761.61
2022-08-05T11:24:05.689Z,99762.77
2022-08-05T11:26:12.385Z,99761.17
2022-08-05T11:28:44.164Z,99767.84
2022-08-05T11:31:19.528Z,99760.03
2022-08-05T11:33:49.214Z,99760.93
2022-08-05T11:36:34.586Z,99762.34
2022-08-05T11:38:54.865Z,99760.38
2022-08-05T11:41:58.004Z,99763.11
2022-08-05T11:44:07.606Z,99752.70
2022-08-05T11:46:34.975Z,99756.01
2022-08-05T11:49:04.637Z,99761.64
2022-08-05T11:51:44.312Z,99755.06
2022-08-05T11:54:04.448Z,99760.41
2022-08-05T11:56:50.456Z,99759.05
2022-08-05T11:59:21.308Z,99766.89
2022-08-05T12:02:24.000Z,99764.27
2022-08-05T12:04:43.157Z,99760.17
2022-08-05T12:07:17.892Z,99746.80
2022-08-05T12:09:53.199Z,99749.00
2022-08-05T12:12:28.853Z,99745.02
2022-08-05T12:14:58.255Z,99739.75
2022-08-05T12:17:57.936Z,99741.81
2022-08-05T12:20:16.684Z,99743.04
2022-08-05T12:22:32.160Z,99743.66
2022-08-05T12:25:00.998Z,99746.56
2022-08-05T12:27:33.368Z,99739.09
2022-08-05T12:30:03.798Z,99743.38
2022-08-05T12:32:34.164Z,99743.18
2022-08-05T12:35:06.582Z,99749.02
2022-08-05T12:37:38.022Z,99748.85
2022-08-05T12:40:10.818Z,99744.30
2022-08-05T12:42:40.711Z,99736.55
2022-08-05T12:45:11.935Z,99732.12
2022-08-05T12:47:43.582Z,99734.06
2022-08-05T12:50:16.159Z,99731.92
2022-08-05T12:52:46.399Z,99720.27
2022-08-05T12:55:22.402Z,99718.63
2022-08-05T12:58:51.272Z,99731.88
2022-08-05T13:02:01.593Z,99727.91
2022-08-05T13:02:56.344Z,99717.08
2022-08-05T13:05:25.606Z,99716.95
2022-08-05T13:07:59.653Z,99716.20
2022-08-05T13:10:28.744Z,99712.80
2022-08-05T13:12:58.835Z,99711.59
2022-08-05T13:15:41.721Z,99710.08
2022-08-05T13:18:12.244Z,99711.90
2022-08-05T13:20:42.675Z,99705.92
2022-08-05T13:23:12.714Z,99710.80
2022-08-05T13:25:52.556Z,99715.69
2022-08-05T13:28:13.071Z,99709.97
2022-08-05T13:30:43.278Z,99699.80
2022-08-05T13:34:23.243Z,99699.55
2022-08-05T13:35:50.354Z,99694.83
2022-08-05T13:38:28.249Z,99690.89
2022-08-05T13:40:51.820Z,99692.48
2022-08-05T13:43:21.986Z,99700.05
2022-08-05T13:45:48.491Z,99693.45
2022-08-05T13:48:58.774Z,99702.08
2022-08-05T13:50:49.291Z,99699.29
2022-08-05T13:53:18.171Z,99705.14
2022-08-05T13:55:49.313Z,99704.95
2022-08-05T13:58:30.423Z,99704.86
2022-08-05T14:00:48.403Z,99697.95
2022-08-05T14:03:18.845Z,99703.64
2022-08-05T14:06:25.399Z,99696.26
2022-08-05T14:08:20.800Z,99693.08
2022-08-05T14:10:50.113Z,99690.90
2022-08-05T14:13:18.839Z,99684.73
2022-08-05T14:16:05.914Z,99682.99
2022-08-05T14:18:23.492Z,99687.58
2022-08-05T14:20:54.618Z,99689.63
2022-08-05T14:23:25.423Z,99684.62
2022-08-05T14:25:54.310Z,99685.00
2022-08-05T14:28:26.472Z,99674.09
2022-08-05T14:30:53.615Z,99673.02
2022-08-05T14:33:23.894Z,99683.73
2022-08-05T14:35:54.553Z,99682.02
2022-08-05T14:38:33.241Z,99678.41
2022-08-05T14:40:54.642Z,99677.55
2022-08-05T14:43:57.516Z,99685.30
2022-08-05T14:45:53.863Z,99683.67
2022-08-05T14:48:33.495Z,99682.11
2022-08-05T14:50:53.097Z,99681.69
2022-08-05T14:53:22.009Z,99674.58
2022-08-05T14:55:52.598Z,99672.11
2022-08-05T14:58:21.103Z,99669.45
2022-08-05T15:00:57.975Z,99661.80
2022-08-05T15:03:20.401Z,99655.91
2022-08-05T15:06:08.380Z,99656.34
2022-08-05T15:08:39.689Z,99655.94
2022-08-05T15:10:52.930Z,99654.80
2022-08-05T15:13:44.871Z,99663.64
2022-08-05T15:15:56.268Z,99653.62
2022-08-05T15:18:25.129Z,99655.21
2022-08-05T15:20:54.012Z,99661.76
2022-08-05T15:23:22.948Z,99654.08
2022-08-05T15:25:55.910Z,99654.38
2022-08-05T15:28:27.221Z,99655.42
2022-08-05T15:30:54.057Z,99652.10
2022-08-05T15:34:05.213Z,99651.83
2022-08-05T15:35:53.484Z,99653.52
2022-08-05T15:38:34.072Z,99649.76
2022-08-05T15:41:21.280Z,99651.92
2022-08-05T15:43:23.229Z,99647.41
2022-08-05T15:45:59.745Z,99651.66
2022-08-05T15:48:23.251Z,99635.24
2022-08-05T15:50:51.999Z,99635.39
2022-08-05T15:53:26.413Z,99637.42
2022-08-05T15:56:02.511Z,99632.09
2022-08-05T15:58:29.223Z,99628.34
2022-08-05T16:01:16.313Z,99629.45
2022-08-05T16:03:41.210Z,99641.44
2022-08-05T16:06:11.214Z,99635.70
2022-08-05T16:08:44.553Z,99635.15
2022-08-05T16:11:13.353Z,99639.05
2022-08-05T16:13:43.635Z,99632.56
2022-08-05T16:16:12.352Z,99630.34
2022-08-05T16:18:52.512Z,99626.64
2022-08-05T16:21:11.654Z,99628.70
2022-08-05T16:23:54.018Z,99628.35
2022-08-05T16:26:12.501Z,99625.11
2022-08-05T16:28:41.504Z,99624.38
2022-08-05T16:31:10.650Z,99628.20
2022-08-05T16:33:41.650Z,99629.05
2022-08-05T16:36:10.949Z,99632.30
2022-08-05T16:38:39.701Z,99636.84
2022-08-05T16:42:12.483Z,99632.71
2022-08-05T16:43:39.875Z,99633.36
2022-08-05T16:46:12.865Z,99634.30
2022-08-05T16:48:39.216Z,99627.17
2022-08-05T16:51:10.354Z,99622.26
2022-08-05T16:54:06.074Z,99618.15
2022-08-05T16:56:10.352Z,99620.34
2022-08-05T16:58:40.946Z,99612.64
2022-08-05T17:01:11.177Z,99616.47
2022-08-05T17:03:40.003Z,99613.72
2022-08-05T17:06:09.951Z,99612.50
2022-08-05T17:08:52.777Z,99612.42
2022-08-05T17:11:16.482Z,99614.27
2022-08-05T17:13:42.279Z,99624.41
2022-08-05T17:18:41.598Z,99622.53
2022-08-05T17:21:10.498Z,99628.69
2022-08-05T17:24:04.503Z,99632.39
2022-08-05T17:26:09.742Z,99633.41
2022-08-05T17:28:40.110Z,99632.44
2022-08-05T17:31:24.609Z,99637.41
2022-08-05T17:33:48.537Z,99644.38
2022-08-05T17:36:32.405Z,99651.55
2022-08-05T17:38:42.229Z,99642.69
2022-08-05T17:42:16.511Z,99645.23
2022-08-05T17:43:47.304Z,99649.52
2022-08-05T17:46:12.281Z,99658.22
2022-08-05T17:48:44.800Z,99657.78
2022-08-05T17:51:13.914Z,99662.25
2022-08-05T17:53:45.908Z,99664.59
2022-08-05T17:56:17.891Z,99668.77
2022-08-05T17:58:46.682Z,99673.66
2022-08-05T18:01:15.627Z,99681.34
2022-08-05T18:03:58.865Z,99681.92
2022-08-05T18:06:15.724Z,99684.95
2022-08-05T18:08:52.086Z,99708.33
2022-08-05T18:11:23.358Z,99719.76
2022-08-05T18:13:46.656Z,99719.38
2022-08-05T18:16:17.456Z,99724.20
2022-08-05T18:18:50.225Z,99731.35
2022-08-05T18:21:23.038Z,99726.90
2022-08-05T18:23:53.521Z,99740.77
2022-08-05T18:26:27.732Z,99740.29
2022-08-05T18:28:57.091Z,99755.66
2022-08-05T18:31:26.022Z,99759.00
2022-08-05T18:33:56.659Z,99760.73
2022-08-05T18:36:28.196Z,99753.51
2022-08-05T18:38:57.235Z,99754.27
2022-08-05T18:41:56.033Z,99755.27
2022-08-05T18:43:56.568Z,99763.20
2022-08-05T18:46:29.076Z,99770.53
2022-08-05T18:48:59.249Z,99773.31
2022-08-05T18:52:02.790Z,99776.58
2022-08-05T18:54:17.283Z,99781.42
2022-08-05T18:56:51.817Z,99788.20
2022-08-05T18:59:42.873Z,99794.90
2022-08-05T19:01:47.521Z,99798.98
2022-08-05T19:04:24.292Z,99800.36
2022-08-05T19:06:47.179Z,99799.25
2022-08-05T19:09:15.929Z,99800.97
2022-08-05T19:12:00.496Z,99808.84
2022-08-05T19:14:44.656Z,99809.96
2022-08-05T19:16:46.776Z,99813.19
2022-08-05T19:19:16.052Z,99819.05
2022-08-05T19:21:47.405Z,99830.67
2022-08-05T19:24:17.752Z,99839.12
2022-08-05T19:26:54.548Z,99840.29
2022-08-05T19:29:18.969Z,99849.30
2022-08-05T19:31:51.263Z,99859.42
2022-08-05T19:34:18.677Z,99857.16
2022-08-05T19:36:47.652Z,99854.76
2022-08-05T19:39:18.399Z,99858.81
2022-08-05T19:42:06.059Z,99860.95
2022-08-05T19:44:19.334Z,99855.80
2022-08-05T19:46:50.261Z,99863.33
2022-08-05T19:49:19.566Z,99875.28
2022-08-05T19:52:08.778Z,99881.11
2022-08-05T19:54:26.938Z,99880.58
2022-08-05T19:56:50.307Z,99874.42
2022-08-05T19:59:50.909Z,99878.16
2022-08-05T20:01:49.386Z,99878.46
2022-08-05T20:04:19.129Z,99877.27
2022-08-05T20:06:48.736Z,99879.60
2022-08-05T20:09:17.538Z,99881.79
2022-08-05T20:11:48.252Z,99892.98
2022-08-05T20:14:26.753Z,99902.81
2022-08-05T20:16:50.694Z,99905.92
2022-08-05T20:19:19.518Z,99903.28
2022-08-05T20:21:50.275Z,99908.38
2022-08-05T20:24:22.252Z,99904.09
2022-08-05T20:26:52.453Z,99903.51
2022-08-05T20:29:27.323Z,99909.70
2022-08-05T20:31:56.154Z,99914.91
2022-08-05T20:34:21.960Z,99929.07
2022-08-05T20:36:51.895Z,99925.94
2022-08-05T20:39:20.946Z,99925.05
2022-08-05T20:41:50.091Z,99927.36
2022-08-05T20:44:29.401Z,99934.00
2022-08-05T20:46:49.453Z,99941.86
2022-08-05T20:49:24.148Z,99941.41
2022-08-05T20:51:53.630Z,99938.27
2022-08-05T20:54:19.103Z,99943.60
2022-08-05T20:56:48.981Z,99949.33
2022-08-05T20:59:26.644Z,99956.33
2022-08-05T21:01:49.369Z,99961.27
2022-08-05T21:04:19.615Z,99958.30
2022-08-05T21:06:48.581Z,99966.16
2022-08-05T21:09:19.045Z,99973.69
2022-08-05T21:12:11.014Z,99984.48
2022-08-05T21:14:19.052Z,100003.19
2022-08-05T21:16:47.809Z,100022.86
2022-08-05T21:19:18.235Z,100034.81
2022-08-05T21:21:50.829Z,100062.67
2022-08-05T21:24:20.012Z,100077.96
2022-08-05T21:26:57.824Z,100081.36
2022-08-05T21:29:19.307Z,100087.10
2022-08-05T21:31:50.871Z,100090.89
2022-08-05T21:34:20.976Z,100082.56
2022-08-05T21:36:50.925Z,100079.20
2022-08-05T21:39:26.942Z,100080.70
2022-08-05T21:41:52.664Z,100063.94
2022-08-05T21:44:26.916Z,100050.90
2022-08-05T21:46:50.972Z,100048.09
2022-08-05T21:49:59.313Z,100048.73
2022-08-05T21:52:21.971Z,100054.77
2022-08-05T21:54:27.955Z,100054.78
2022-08-05T21:57:01.072Z,100035.88
2022-08-05T21:59:25.009Z,100024.99
2022-08-05T22:01:54.428Z,100019.58
2022-08-05T22:04:25.622Z,100015.72
2022-08-05T22:06:54.106Z,100021.91
2022-08-05T22:09:24.477Z,100023.24
2022-08-05T22:11:54.837Z,100028.58
2022-08-05T22:14:35.140Z,100031.97
2022-08-05T22:17:01.462Z,100040.45
2022-08-05T22:20:01.069Z,100059.77
2022-08-05T22:21:57.087Z,100060.98
2022-08-05T22:24:51.861Z,100067.09
2022-08-05T22:28:08.641Z,100063.59
2022-08-05T22:30:02.430Z,100072.58
2022-08-05T22:32:33.020Z,100079.80
2022-08-05T22:35:01.778Z,100095.30
2022-08-05T22:37:58.733Z,100088.91
2022-08-05T22:40:02.902Z,100095.13
2022-08-05T22:42:33.380Z,100101.14
2022-08-05T22:45:03.564Z,100103.25
2022-08-05T22:47:32.322Z,100111.56
2022-08-05T22:50:21.666Z,100110.78
2022-08-05T22:52:34.518Z,100108.63
2022-08-05T22:55:04.770Z,100110.77
2022-08-05T22:57:36.745Z,100111.56
2022-08-05T23:00:09.221Z,100116.02
2022-08-05T23:02:46.717Z,100124.56
2022-08-05T23:05:09.254Z,100127.07
2022-08-05T23:07:45.371Z,100124.08
2022-08-05T23:10:10.045Z,100123.11
2022-08-05T23:12:39.153Z,100123.23
2022-08-05T23:15:09.104Z,100122.78
2022-08-05T23:17:59.865Z,100120.73
2022-08-05T23:20:16.482Z,100119.83
2022-08-05T23:22:40.115Z,100120.77
2022-08-05T23:25:09.304Z,100130.23
2022-08-05T23:27:57.534Z,100133.53
2022-08-05T23:30:11.761Z,100138.87
2022-08-05T23:32:45.289Z,100145.18
2022-08-05T23:35:11.809Z,100140.44
2022-08-05T23:37:40.643Z,100137.42
2022-08-05T23:40:11.083Z,100145.32
2022-08-05T23:42:41.190Z,100145.72
2022-08-05T23:45:14.396Z,100162.41
2022-08-05T23:47:47.740Z,100170.34
2022-08-05T23:50:12.516Z,100179.17
2022-08-05T23:52:49.541Z,100175.69
2022-08-05T23:55:12.150Z,100177.50
2022-08-05T23:57:41.912Z,100176.85
